KTVL/TVL METAR and TAF weather

Enter ICAO airport designator
Station Type Date Time Source
KTVL METAR 2021/05/14 03:53 UTC NOAA

KTVL 140353Z AUTO 20003KT 10SM CLR 13/00 A3019 RMK AO2 SLP178 T01280000


Station Type Date Time Source
KTVL Decoded METAR 2021/05/14 03:53 UTC NOAA

SOUTH LAKE TAHOE AIRPORT, CA, United States (KTVL) 38-53N 119-59W 1925M
May 13, 2021 - 11:53 PM EDT / 2021.05.14 0353 UTC
Wind: from the SSW (200 degrees) at 3 MPH (3 KT):0
Visibility: 10 mile(s):0
Sky conditions: clear
Temperature: 55.0 F (12.8 C)
Dew Point: 32.0 F (0.0 C)
Relative Humidity: 41%
Pressure (altimeter): 30.19 in. Hg (1022 hPa)
ob: KTVL 140353Z AUTO 20003KT 10SM CLR 13/00 A3019 RMK AO2 SLP178 T01280000
cycle: 4

Station Type Date Time Source
KTVL TAF 2021/05/13 18:24 UTC NOAA

TAF KTVL 131721Z 1318/1418 03008KT P6SM FEW220
FM132200 19009G17KT P6SM SCT220
FM140300 VRB03KT P6SM SKC

Example: see airport list